Share

Munday, TX (76371)

6:13 PM CDT on April 24, 2014 (GMT -0500)
WT_Meso 3NW Knox City (MKXST2) Elev 1470 ft | 33.45 °N, 99.86 °W | Change Station

Current weather conditions updated 48 minutes ago

Clear
Clear
80 °F
Feels Like 78 °F
N
13
Wind Variable Wind from NNW
Gusts 19.0 mph
Sunrise 6:57 AM
Sunset 8:16 PM
Moon Waning Crescent

Tomorrow is forecast to be Much Warmer than today.

Pressure 29.89 in
Visibility 10.0 miles
Clouds Clear
Heat Index 78 °F
Dew Point 27 °F
Humidity 14%
Rainfall -999.00 in
Snow Depth Not available.
UV 3 out of 16
Pollen 8.20 out of 12
Air Quality Not available.
Flu Activity Local Activity
METAR KF05 242255Z AUTO 34009G14KT 10SM CLR 26/00 A2989 RMK AO1 T02620000

More Conditions Fewer Conditions

Pressure 29.89 in
Visibility 10.0 miles
Clouds Clear
Heat Index 78 °F
Dew Point 27 °F
Humidity 14%
Rainfall -999.00 in
Snow Depth Not available.
UV 3 out of 16
Pollen 8.20 out of 12
Air Quality Not available.
Flu Activity Local Activity
METAR KF05 242255Z AUTO 34009G14KT 10SM CLR 26/00 A2989 RMK AO1 T02620000

More Conditions Fewer Conditions

10-Day Weather Forecast

Almanac

Astronomy

Apr. 24, 2014 Rise Set
Actual Time 6:57 AM CDT 8:16 PM CDT
Civil Twilight 6:31 AM CDT 8:42 PM CDT
Nautical Twilight 6:00 AM CDT 9:13 PM CDT
Astronomical Twilight 5:28 AM CDT 9:45 PM CDT
Moon 3:54 AM CDT 3:47 PM CDT
Length of Visible Light 14h 10m
Length of Day
13h 18m
Tomorrow will be 1m 52s longer.
Waning Crescent, 22% of the Moon is Illuminated
Today
Waning Crescent
Apr 29
New
May 6
First Quarter
May 14
Full
May 21
Last Quarter

Today's Extremes

State Highs State Lows

Community

  • Jone Runs Falls
    Jone Runs Falls
  • Easter in Shenandoah National Park
    Easter in Shenandoah National Park
  • Sunset at Apalachicola Bay, Florida
    Sunset at Apalachicola Bay, Florida
  • Clouds mov'n in
    Clouds mov'n in
  • Stacked
    Stacked

WunderPhotos

Upload Photos

1,704,737 photos uploaded!

Nearby

Snow Depth

Station Depth Elevation
No new snow has been reported.

Coastal Water Temperatures

Place Temperature
No Stations Reporting

Earthquake Activity

City Distance Mag. Time & Date
No recent earthquake activity has been reported nearby.
Minimum magnitude displayed is 2.5.

Nearby Weather Stations

Station Location Temp. Heat Index Dew Point Humidity Wind Precip. Elev Updated Type
RAWS MILLER CREEK TX, Goree, TX 81 °F 79 °F 35 °F 19% NNW  at  13 mph 0.00 in / hr 1334 ft 5:05 PM CDT MADIS
WT_Meso 3NW Knox City, Knox City, TX 80 °F 78 °F 27 °F 14% NNW  at  13 mph 0.00 in / hr 1470 ft 5:25 PM CDT MADIS
WT_Meso 3NW Seymour, Seymour, TX 77 °F 77 °F 33 °F 20% NW  at  13 mph 0.00 in / hr 1421 ft 5:25 PM CDT MADIS

Show More Stations Show Fewer Stations

What do you think?

We're not finished. Please let us know what you like, what you don't like, and what you are still missing.